Terminal Aerodrome Forecast
Issued by NWS

Home | Current Version | Previous Version | Text Only | Print | Product List | Glossary On
Versions: 1 2 3 4 5 6 7 8 9 10 11 12 13 14
000
FTUS46 KSTO 262330
TAFSAC
TAF
KSAC 262330Z 2700/2724 20010G15KT P6SM SCT050 SCT200
     FM270600 19008KT P6SM VCSH BKN040
     FM271000 VRB04KT P6SM BKN040=

USA.gov is the U.S. government's official web portal to all federal, state and local government web resources and services.